createdAt,value
2023-03-12T00:00:11.392Z,11.23
2023-03-12T00:02:38.619Z,9.40
2023-03-12T00:05:06.388Z,9.07
2023-03-12T00:07:33.714Z,6.43
2023-03-12T00:10:00.843Z,7.77
2023-03-12T00:12:27.879Z,6.87
2023-03-12T00:14:55.096Z,9.13
2023-03-12T00:17:22.164Z,8.30
2023-03-12T00:19:53.835Z,8.27
2023-03-12T00:22:23.815Z,9.27
2023-03-12T00:24:56.556Z,12.60
2023-03-12T00:27:25.789Z,8.43
2023-03-12T00:29:53.236Z,11.03
2023-03-12T00:32:20.639Z,9.00
2023-03-12T00:34:55.931Z,9.27
2023-03-12T00:37:23.512Z,9.20
2023-03-12T00:39:50.661Z,8.53
2023-03-12T00:42:18.938Z,10.47
2023-03-12T00:44:46.472Z,7.73
2023-03-12T00:47:14.256Z,11.57
2023-03-12T00:49:41.419Z,10.53
2023-03-12T00:52:08.931Z,9.97
2023-03-12T00:54:36.282Z,11.67
2023-03-12T00:57:03.425Z,11.77
2023-03-12T00:59:30.628Z,12.07
2023-03-12T01:01:58.013Z,12.60
2023-03-12T01:04:25.222Z,12.93
2023-03-12T01:06:52.379Z,11.53
2023-03-12T01:09:19.561Z,12.30
2023-03-12T01:11:46.583Z,11.70
2023-03-12T01:14:13.622Z,13.30
2023-03-12T01:16:40.732Z,12.20
2023-03-12T01:19:07.868Z,13.37
2023-03-12T01:21:34.921Z,14.07
2023-03-12T01:24:02.027Z,12.13
2023-03-12T01:26:29.246Z,10.63
2023-03-12T01:28:56.476Z,13.63
2023-03-12T01:31:23.736Z,11.37
2023-03-12T01:33:54.475Z,13.53
2023-03-12T01:36:28.794Z,13.43
2023-03-12T01:38:59.238Z,17.47
2023-03-12T01:41:29.875Z,13.10
2023-03-12T01:43:57.133Z,14.50
2023-03-12T01:46:39.719Z,13.83
2023-03-12T01:49:22.160Z,12.70
2023-03-12T01:52:04.259Z,13.07
2023-03-12T01:54:41.121Z,14.77
2023-03-12T01:57:15.693Z,14.63
2023-03-12T01:59:54.212Z,15.60
2023-03-12T02:02:27.010Z,11.83
2023-03-12T02:05:17.284Z,13.20
2023-03-12T02:07:44.312Z,13.47
2023-03-12T02:10:11.929Z,16.40
2023-03-12T02:12:39.148Z,16.60
2023-03-12T02:15:07.259Z,14.30
2023-03-12T02:17:35.715Z,16.37
2023-03-12T02:20:19.862Z,12.80
2023-03-12T02:23:00.328Z,15.07
2023-03-12T02:25:37.103Z,13.53
2023-03-12T02:28:09.445Z,14.17
2023-03-12T02:30:39.501Z,13.17
2023-03-12T02:33:09.072Z,13.80
2023-03-12T02:35:36.871Z,12.23
2023-03-12T02:38:36.196Z,10.10
2023-03-12T02:41:19.300Z,10.40
2023-03-12T02:43:58.894Z,15.10
2023-03-12T02:46:26.837Z,9.77
2023-03-12T02:48:55.316Z,10.53
2023-03-12T02:51:22.395Z,13.00
2023-03-12T02:53:54.756Z,10.50
2023-03-12T02:56:24.943Z,15.87
2023-03-12T02:58:51.978Z,11.13
2023-03-12T03:01:19.456Z,12.57
2023-03-12T03:03:47.432Z,8.97
2023-03-12T03:06:15.085Z,13.87
2023-03-12T03:08:42.243Z,10.17
2023-03-12T03:11:09.573Z,12.57
2023-03-12T03:13:37.015Z,8.77
2023-03-12T03:16:04.839Z,12.90
2023-03-12T03:18:32.479Z,10.00
2023-03-12T03:21:07.915Z,11.17
2023-03-12T03:23:35.770Z,11.80
2023-03-12T03:26:03.471Z,12.47
2023-03-12T03:28:31.258Z,10.60
2023-03-12T03:31:01.852Z,14.60
2023-03-12T03:33:31.193Z,13.50
2023-03-12T03:35:59.764Z,7.87
2023-03-12T03:38:29.435Z,11.33
2023-03-12T03:40:56.634Z,7.97
2023-03-12T03:43:24.301Z,12.03
2023-03-12T03:46:05.841Z,15.17
2023-03-12T03:48:33.273Z,6.57
2023-03-12T03:51:06.022Z,7.87
2023-03-12T03:53:33.281Z,11.97
2023-03-12T03:56:11.397Z,10.27
2023-03-12T03:58:38.600Z,8.33
2023-03-12T04:01:06.577Z,8.40
2023-03-12T04:03:34.457Z,7.10
2023-03-12T04:06:05.024Z,10.20
2023-03-12T04:08:35.441Z,8.57
2023-03-12T04:11:21.286Z,9.60
2023-03-12T04:13:49.502Z,8.13
2023-03-12T04:16:17.324Z,11.83
2023-03-12T04:18:44.990Z,7.50
2023-03-12T04:21:14.069Z,9.97
2023-03-12T04:23:41.319Z,7.40
2023-03-12T04:26:09.018Z,11.27
2023-03-12T04:28:37.431Z,11.07
2023-03-12T04:31:08.654Z,6.47
2023-03-12T04:33:38.662Z,7.37
2023-03-12T04:36:07.184Z,7.63
2023-03-12T04:38:34.413Z,12.50
2023-03-12T04:41:04.927Z,8.30
2023-03-12T04:43:32.796Z,7.17
2023-03-12T04:46:00.755Z,6.73
2023-03-12T04:48:28.541Z,7.17
2023-03-12T04:50:55.620Z,7.27
2023-03-12T04:53:23.132Z,12.57
2023-03-12T04:55:50.650Z,6.67
2023-03-12T04:58:19.449Z,6.87
2023-03-12T05:00:48.423Z,10.80
2023-03-12T05:03:15.745Z,5.23
2023-03-12T05:05:42.882Z,10.43
2023-03-12T05:08:09.935Z,8.93
2023-03-12T05:10:36.969Z,8.53
2023-03-12T05:13:04.010Z,9.43
2023-03-12T05:15:31.115Z,7.87
2023-03-12T05:17:58.185Z,8.80
2023-03-12T05:20:25.208Z,12.17
2023-03-12T05:22:52.255Z,7.30
2023-03-12T05:25:19.350Z,10.33
2023-03-12T05:27:46.345Z,16.57
2023-03-12T05:30:13.700Z,6.77
2023-03-12T05:32:40.905Z,9.63
2023-03-12T05:35:08.555Z,8.43
2023-03-12T05:37:35.629Z,10.93
2023-03-12T05:40:02.713Z,7.83
2023-03-12T05:42:29.727Z,7.60
2023-03-12T05:44:57.381Z,11.30
2023-03-12T05:47:24.423Z,8.80
2023-03-12T05:49:52.272Z,9.73
2023-03-12T05:52:19.362Z,5.47
2023-03-12T05:54:46.373Z,7.73
2023-03-12T05:57:13.483Z,7.40
2023-03-12T05:59:40.529Z,7.63
2023-03-12T06:02:07.687Z,11.13
2023-03-12T06:04:34.726Z,7.43
2023-03-12T06:07:01.742Z,5.77
2023-03-12T06:09:28.742Z,8.30
2023-03-12T06:11:55.765Z,4.80
2023-03-12T06:14:22.824Z,5.33
2023-03-12T06:16:49.868Z,5.90
2023-03-12T06:19:16.980Z,10.30
2023-03-12T06:21:44.410Z,5.90
2023-03-12T06:24:11.545Z,6.77
2023-03-12T06:26:38.908Z,5.67
2023-03-12T06:29:06.046Z,5.50
2023-03-12T06:31:33.095Z,5.10
2023-03-12T06:34:00.166Z,4.80
2023-03-12T06:36:27.262Z,5.93
2023-03-12T06:38:57.020Z,7.67
2023-03-12T06:41:24.420Z,5.37
2023-03-12T06:43:51.483Z,6.37
2023-03-12T06:46:21.967Z,6.40
2023-03-12T06:48:49.499Z,5.03
2023-03-12T06:51:18.283Z,4.23
2023-03-12T06:53:46.634Z,7.43
2023-03-12T06:56:14.031Z,4.13
2023-03-12T06:58:41.620Z,5.43
2023-03-12T07:01:08.776Z,8.93
2023-03-12T07:03:36.065Z,5.87
2023-03-12T07:06:03.724Z,6.60
2023-03-12T07:08:31.202Z,6.33
2023-03-12T07:11:01.846Z,7.40
2023-03-12T07:13:29.908Z,3.60
2023-03-12T07:15:57.112Z,4.10
2023-03-12T07:18:24.136Z,6.57
2023-03-12T07:20:52.042Z,5.67
2023-03-12T07:23:19.192Z,6.60
2023-03-12T07:25:46.502Z,5.27
2023-03-12T07:28:14.144Z,5.77
2023-03-12T07:30:41.872Z,5.00
2023-03-12T07:33:12.475Z,2.60
2023-03-12T07:35:40.542Z,3.90
2023-03-12T07:38:10.040Z,4.65
2023-03-12T07:40:38.959Z,3.83
2023-03-12T07:43:11.286Z,4.22
2023-03-12T07:45:39.949Z,3.50
2023-03-12T07:48:07.427Z,3.63
2023-03-12T07:50:35.782Z,4.95
2023-03-12T07:53:03.153Z,4.28
2023-03-12T07:55:30.901Z,3.63
2023-03-12T07:57:59.201Z,3.73
2023-03-12T08:00:28.290Z,4.28
2023-03-12T08:02:55.491Z,6.07
2023-03-12T08:05:25.035Z,3.33
2023-03-12T08:07:52.874Z,2.67
2023-03-12T08:10:21.534Z,4.93
2023-03-12T08:12:49.180Z,5.03
2023-03-12T08:15:16.778Z,5.80
2023-03-12T08:17:44.432Z,7.43
2023-03-12T08:20:12.820Z,6.10
2023-03-12T08:22:41.108Z,5.47
2023-03-12T08:25:09.476Z,3.67
2023-03-12T08:27:36.931Z,2.63
2023-03-12T08:30:06.537Z,3.23
2023-03-12T08:32:34.357Z,4.27
2023-03-12T08:35:01.640Z,3.80
2023-03-12T08:37:28.686Z,3.53
2023-03-12T08:39:55.845Z,3.00
2023-03-12T08:42:22.985Z,2.30
2023-03-12T08:44:50.196Z,3.27
2023-03-12T08:47:17.704Z,3.30
2023-03-12T08:49:44.975Z,2.70
2023-03-12T08:52:12.038Z,3.63
2023-03-12T08:54:39.082Z,3.60
2023-03-12T08:57:06.336Z,4.60
2023-03-12T08:59:33.458Z,6.33
2023-03-12T09:02:01.485Z,2.33
2023-03-12T09:04:28.587Z,2.92
2023-03-12T09:06:55.659Z,4.30
2023-03-12T09:09:22.699Z,3.65
2023-03-12T09:11:49.744Z,4.35
2023-03-12T09:17:04.028Z,6.13
2023-03-12T09:19:31.177Z,2.60
2023-03-12T09:21:58.387Z,4.47
2023-03-12T09:24:25.600Z,4.87
2023-03-12T09:26:52.824Z,3.80
2023-03-12T09:29:19.992Z,2.57
2023-03-12T09:31:47.144Z,2.25
2023-03-12T09:34:14.191Z,2.93
2023-03-12T09:36:41.276Z,2.63
2023-03-12T09:39:08.445Z,7.20
2023-03-12T09:41:39.990Z,3.43
2023-03-12T09:44:32.488Z,5.40
2023-03-12T09:47:12.589Z,4.40
2023-03-12T09:49:49.294Z,3.47
2023-03-12T09:52:34.165Z,3.40
2023-03-12T09:55:20.591Z,2.43
2023-03-12T09:57:50.662Z,3.50
2023-03-12T10:00:27.355Z,6.03
2023-03-12T10:03:06.288Z,5.80
2023-03-12T10:06:20.544Z,3.63
2023-03-12T10:09:34.003Z,3.67
2023-03-12T10:12:38.249Z,5.27
2023-03-12T10:15:11.782Z,3.30
2023-03-12T10:18:00.570Z,5.17
2023-03-12T10:20:42.373Z,2.80
2023-03-12T10:23:23.553Z,10.93
2023-03-12T10:26:03.606Z,4.43
2023-03-12T10:29:04.011Z,4.13
2023-03-12T10:32:03.053Z,4.73
2023-03-12T10:34:56.567Z,3.87
2023-03-12T10:38:09.358Z,3.93
2023-03-12T10:40:39.048Z,4.20
2023-03-12T10:43:10.006Z,4.55
2023-03-12T10:46:34.795Z,2.93
2023-03-12T10:49:23.422Z,5.20
2023-03-12T10:52:06.469Z,5.78
2023-03-12T10:54:37.153Z,4.25
2023-03-12T10:57:05.391Z,4.32
2023-03-12T10:59:43.081Z,3.58
2023-03-12T11:02:44.041Z,4.50
2023-03-12T11:05:28.788Z,2.60
2023-03-12T11:07:57.143Z,8.70
2023-03-12T11:10:46.385Z,7.78
2023-03-12T11:13:39.176Z,4.28
2023-03-12T11:16:18.190Z,3.90
2023-03-12T11:19:06.324Z,3.85
2023-03-12T11:21:38.293Z,4.28
2023-03-12T11:24:13.339Z,4.43
2023-03-12T11:26:59.750Z,3.55
2023-03-12T11:29:33.290Z,4.35
2023-03-12T11:32:24.250Z,6.55
2023-03-12T11:34:52.815Z,3.65
2023-03-12T11:38:03.320Z,3.45
2023-03-12T11:41:07.474Z,5.38
2023-03-12T11:43:43.704Z,4.00
2023-03-12T11:46:51.872Z,4.82
2023-03-12T11:49:44.613Z,2.05
2023-03-12T11:52:51.899Z,6.28
2023-03-12T11:55:50.510Z,3.55
2023-03-12T11:58:33.388Z,4.55
2023-03-12T12:01:40.602Z,4.28
2023-03-12T12:04:37.475Z,4.53
2023-03-12T12:07:17.108Z,5.35
2023-03-12T12:10:03.010Z,5.38
2023-03-12T12:12:54.787Z,3.85
2023-03-12T12:15:57.085Z,7.28
2023-03-12T12:18:50.635Z,2.65
2023-03-12T12:21:29.756Z,4.53
2023-03-12T12:24:05.238Z,5.35
2023-03-12T12:27:06.763Z,2.97
2023-03-12T12:30:09.657Z,3.97
2023-03-12T12:33:08.998Z,4.53
2023-03-12T12:35:43.431Z,5.32
2023-03-12T12:38:30.583Z,3.47
2023-03-12T12:41:25.014Z,3.13
2023-03-12T12:44:12.984Z,4.78
2023-03-12T12:46:46.891Z,3.58
2023-03-12T12:49:32.067Z,6.25
2023-03-12T12:52:07.079Z,4.68
2023-03-12T12:55:15.681Z,4.38
2023-03-12T12:57:56.864Z,2.88
2023-03-12T13:00:35.756Z,2.90
2023-03-12T13:03:03.677Z,3.10
2023-03-12T13:05:36.490Z,3.20
2023-03-12T13:08:08.745Z,4.53
2023-03-12T13:10:35.689Z,6.78
2023-03-12T13:13:20.170Z,6.07
2023-03-12T13:15:48.511Z,9.73
2023-03-12T13:18:25.259Z,3.05
2023-03-12T13:20:52.197Z,4.72
2023-03-12T13:23:49.236Z,6.80
2023-03-12T13:26:56.820Z,4.38
2023-03-12T13:29:29.578Z,3.65
2023-03-12T13:31:57.488Z,6.68
2023-03-12T13:34:26.895Z,5.10
2023-03-12T13:37:01.772Z,7.40
2023-03-12T13:39:33.113Z,4.00
2023-03-12T13:42:02.590Z,5.90
2023-03-12T13:44:33.026Z,3.87
2023-03-12T13:47:29.939Z,5.03
2023-03-12T13:50:06.853Z,6.13
2023-03-12T13:52:42.007Z,3.47
2023-03-12T13:55:27.173Z,4.23
2023-03-12T13:58:21.517Z,5.93
2023-03-12T14:01:02.334Z,5.60
2023-03-12T14:03:49.609Z,3.60
2023-03-12T14:06:24.697Z,5.80
2023-03-12T14:09:12.692Z,4.50
2023-03-12T14:12:04.420Z,3.13
2023-03-12T14:14:48.574Z,8.93
2023-03-12T14:17:21.089Z,4.73
2023-03-12T14:20:09.244Z,4.23
2023-03-12T14:22:39.307Z,8.60
2023-03-12T14:25:37.096Z,5.00
2023-03-12T14:28:13.638Z,3.73
2023-03-12T14:30:52.147Z,4.93
2023-03-12T14:33:21.023Z,3.67
2023-03-12T14:36:16.981Z,5.27
2023-03-12T14:38:46.297Z,5.20
2023-03-12T14:41:34.061Z,6.63
2023-03-12T14:44:18.869Z,5.83
2023-03-12T14:47:17.586Z,4.97
2023-03-12T14:49:46.871Z,5.10
2023-03-12T14:52:22.977Z,3.60
2023-03-12T14:55:01.751Z,10.90
2023-03-12T14:57:29.008Z,5.67
2023-03-12T14:59:59.591Z,4.03
2023-03-12T15:02:30.404Z,5.47
2023-03-12T15:05:01.608Z,5.17
2023-03-12T15:07:40.294Z,4.27
2023-03-12T15:10:27.205Z,4.63
2023-03-12T15:12:58.416Z,5.70
2023-03-12T15:15:44.154Z,3.33
2023-03-12T15:18:28.282Z,6.70
2023-03-12T15:20:57.894Z,4.73
2023-03-12T15:23:27.953Z,7.57
2023-03-12T15:26:19.453Z,4.30
2023-03-12T15:29:26.950Z,5.00
2023-03-12T15:31:58.104Z,3.43
2023-03-12T15:34:38.924Z,4.33
2023-03-12T15:37:37.952Z,6.77
2023-03-12T15:40:24.136Z,5.07
2023-03-12T15:42:52.837Z,4.67
2023-03-12T15:45:40.601Z,3.77
2023-03-12T15:48:54.914Z,4.80
2023-03-12T15:51:35.712Z,6.43
2023-03-12T15:54:14.777Z,4.27
2023-03-12T15:56:41.847Z,3.07
2023-03-12T15:59:24.714Z,3.37
2023-03-12T16:01:55.311Z,7.67
2023-03-12T16:04:24.640Z,3.90
2023-03-12T16:06:53.459Z,5.47
2023-03-12T16:09:26.235Z,7.00
2023-03-12T16:11:56.794Z,9.67
2023-03-12T16:14:34.578Z,7.07
2023-03-12T16:17:01.745Z,7.73
2023-03-12T16:19:33.306Z,5.97
2023-03-12T16:22:00.467Z,5.90
2023-03-12T16:24:27.577Z,4.17
2023-03-12T16:26:58.220Z,9.53
2023-03-12T16:29:35.334Z,7.77
2023-03-12T16:32:08.745Z,5.83
2023-03-12T16:34:35.887Z,10.83
2023-03-12T16:37:02.976Z,8.80
2023-03-12T16:39:33.192Z,7.37
2023-03-12T16:42:02.088Z,8.63
2023-03-12T16:44:34.384Z,8.57
2023-03-12T16:47:02.026Z,10.37
2023-03-12T16:49:29.289Z,16.93
2023-03-12T16:51:56.598Z,9.03
2023-03-12T16:54:23.667Z,7.40
2023-03-12T16:56:51.074Z,6.87
2023-03-12T16:59:31.847Z,9.10
2023-03-12T17:01:58.935Z,9.17
2023-03-12T17:04:26.018Z,8.77
2023-03-12T17:06:53.136Z,7.33
2023-03-12T17:09:20.171Z,5.93
2023-03-12T17:11:51.643Z,6.50
2023-03-12T17:14:23.129Z,11.00
2023-03-12T17:16:50.992Z,8.00
2023-03-12T17:19:18.055Z,9.23
2023-03-12T17:21:45.992Z,9.77
2023-03-12T17:24:14.203Z,9.53
2023-03-12T17:26:43.382Z,13.53
2023-03-12T17:29:10.561Z,12.13
2023-03-12T17:31:37.883Z,13.23
2023-03-12T17:34:05.343Z,14.77
2023-03-12T17:36:35.378Z,15.83
2023-03-12T17:39:02.683Z,18.57
2023-03-12T17:41:32.591Z,14.17
2023-03-12T17:44:02.188Z,17.13
2023-03-12T17:46:30.866Z,12.07
2023-03-12T17:48:58.077Z,16.90
2023-03-12T17:51:25.854Z,18.13
2023-03-12T17:53:53.712Z,11.60
2023-03-12T17:56:21.620Z,12.30
2023-03-12T17:58:49.119Z,10.90
2023-03-12T18:01:17.657Z,13.47
2023-03-12T18:03:44.912Z,16.70
2023-03-12T18:06:12.706Z,8.53
2023-03-12T18:08:39.816Z,9.80
2023-03-12T18:11:07.203Z,9.87
2023-03-12T18:13:34.303Z,10.87
2023-03-12T18:16:01.395Z,16.63
2023-03-12T18:18:28.725Z,19.63
2023-03-12T18:20:56.197Z,19.80
2023-03-12T18:23:25.262Z,15.63
2023-03-12T18:25:52.420Z,18.23
2023-03-12T18:28:20.875Z,21.50
2023-03-12T18:30:48.692Z,17.00
2023-03-12T18:33:16.377Z,26.70
2023-03-12T18:35:44.887Z,18.87
2023-03-12T18:38:12.229Z,22.10
2023-03-12T18:40:39.578Z,16.17
2023-03-12T18:43:06.594Z,18.60
2023-03-12T18:45:33.838Z,15.27
2023-03-12T18:48:00.846Z,21.80
2023-03-12T18:50:27.963Z,19.23
2023-03-12T18:52:56.565Z,13.77
2023-03-12T18:55:23.600Z,14.00
2023-03-12T18:57:51.075Z,17.00
2023-03-12T19:00:19.222Z,21.33
2023-03-12T19:02:48.023Z,16.50
2023-03-12T19:05:15.473Z,14.50
2023-03-12T19:07:42.911Z,13.83
2023-03-12T19:10:12.176Z,17.27
2023-03-12T19:12:51.747Z,18.23
2023-03-12T19:15:21.617Z,18.17
2023-03-12T19:17:48.675Z,19.60
2023-03-12T19:20:16.310Z,18.87
2023-03-12T19:22:43.385Z,16.03
2023-03-12T19:25:10.670Z,17.83
2023-03-12T19:27:37.733Z,22.30
2023-03-12T19:30:05.644Z,22.43
2023-03-12T19:32:42.326Z,22.07
2023-03-12T19:35:12.471Z,20.83
2023-03-12T19:37:39.935Z,18.27
2023-03-12T19:40:08.387Z,22.10
2023-03-12T19:42:35.449Z,26.30
2023-03-12T19:45:02.501Z,24.13
2023-03-12T19:47:29.783Z,21.10
2023-03-12T19:49:56.833Z,20.07
2023-03-12T19:52:24.075Z,22.43
2023-03-12T19:55:03.407Z,18.10
2023-03-12T19:57:31.630Z,22.30
2023-03-12T19:59:59.887Z,22.93
2023-03-12T20:02:27.135Z,22.93
2023-03-12T20:04:55.410Z,20.83
2023-03-12T20:07:22.981Z,25.33
2023-03-12T20:09:50.126Z,22.80
2023-03-12T20:12:17.277Z,25.97
2023-03-12T20:14:44.702Z,27.53
2023-03-12T20:17:12.309Z,32.80
2023-03-12T20:19:39.836Z,29.67
2023-03-12T20:22:07.431Z,27.70
2023-03-12T20:24:34.682Z,26.43
2023-03-12T20:27:01.902Z,24.43
2023-03-12T20:29:28.900Z,25.77
2023-03-12T20:31:55.988Z,29.00
2023-03-12T20:34:24.268Z,27.70
2023-03-12T20:36:51.277Z,28.87
2023-03-12T20:39:18.375Z,25.30
2023-03-12T20:41:45.407Z,27.70
2023-03-12T20:44:12.413Z,29.00
2023-03-12T20:46:39.465Z,32.70
2023-03-12T20:49:06.542Z,23.83
2023-03-12T20:51:33.612Z,32.13
2023-03-12T20:54:00.658Z,27.33
2023-03-12T20:56:27.731Z,24.57
2023-03-12T20:58:54.840Z,29.00
2023-03-12T21:01:21.984Z,25.23
2023-03-12T21:03:49.026Z,26.53
2023-03-12T21:06:16.087Z,23.33
2023-03-12T21:08:43.124Z,27.73
2023-03-12T21:11:10.366Z,22.90
2023-03-12T21:13:37.562Z,22.93
2023-03-12T21:16:09.081Z,24.80
2023-03-12T21:18:36.668Z,24.77
2023-03-12T21:21:07.714Z,22.93
2023-03-12T21:23:36.192Z,22.33
2023-03-12T21:26:09.345Z,23.20
2023-03-12T21:28:36.845Z,29.40
2023-03-12T21:31:06.977Z,27.37
2023-03-12T21:33:34.376Z,20.17
2023-03-12T21:36:08.791Z,23.03
2023-03-12T21:38:36.590Z,24.77
2023-03-12T21:41:13.475Z,24.37
2023-03-12T21:43:40.922Z,22.57
2023-03-12T21:46:15.013Z,22.03
2023-03-12T21:48:46.074Z,24.37
2023-03-12T21:51:17.044Z,23.13
2023-03-12T21:53:44.421Z,20.17
2023-03-12T21:56:12.210Z,18.37
2023-03-12T21:58:39.370Z,19.93
2023-03-12T22:01:18.368Z,20.20
2023-03-12T22:03:46.997Z,19.40
2023-03-12T22:06:15.421Z,20.80
2023-03-12T22:08:43.889Z,20.00
2023-03-12T22:11:11.421Z,20.90
2023-03-12T22:13:38.437Z,18.27
2023-03-12T22:16:08.312Z,19.53
2023-03-12T22:18:40.772Z,18.83
2023-03-12T22:21:12.511Z,16.73
2023-03-12T22:23:39.541Z,18.17
2023-03-12T22:26:08.053Z,16.73
2023-03-12T22:28:35.548Z,18.37
2023-03-12T22:31:06.680Z,25.53
2023-03-12T22:33:37.361Z,19.87
2023-03-12T22:36:10.513Z,15.67
2023-03-12T22:38:38.925Z,23.00
2023-03-12T22:41:23.424Z,23.13
2023-03-12T22:43:53.730Z,20.60
2023-03-12T22:46:23.469Z,18.57
2023-03-12T22:48:59.994Z,22.77
2023-03-12T22:51:29.925Z,16.97
2023-03-12T22:53:57.427Z,24.10
2023-03-12T22:56:25.074Z,20.77
2023-03-12T22:58:52.483Z,15.00
2023-03-12T23:01:22.429Z,18.47
2023-03-12T23:03:50.407Z,20.37
2023-03-12T23:06:22.146Z,21.67
2023-03-12T23:08:49.732Z,17.80
2023-03-12T23:11:17.859Z,17.40
2023-03-12T23:13:46.191Z,21.40
2023-03-12T23:16:17.732Z,23.33
2023-03-12T23:18:45.529Z,19.07
2023-03-12T23:21:19.346Z,18.83
2023-03-12T23:23:47.395Z,23.80
2023-03-12T23:26:22.865Z,22.20
2023-03-12T23:28:53.318Z,18.70
2023-03-12T23:31:21.109Z,18.80
2023-03-12T23:33:48.316Z,21.87
2023-03-12T23:36:19.199Z,20.03
2023-03-12T23:38:47.924Z,26.90
2023-03-12T23:41:24.264Z,22.27
2023-03-12T23:43:52.947Z,25.70
2023-03-12T23:46:20.872Z,22.03
2023-03-12T23:48:48.691Z,20.47
2023-03-12T23:51:28.760Z,19.90
2023-03-12T23:54:01.789Z,19.80
2023-03-12T23:56:37.901Z,17.77
2023-03-12T23:59:08.061Z,18.57
